createdAt,value
2022-11-14T00:02:41.034Z,14.70
2022-11-14T00:05:26.751Z,14.30
2022-11-14T00:08:16.714Z,14.15
2022-11-14T00:11:02.770Z,14.23
2022-11-14T00:13:48.761Z,14.30
2022-11-14T00:16:34.601Z,14.18
2022-11-14T00:19:20.586Z,14.23
2022-11-14T00:22:06.371Z,13.57
2022-11-14T00:24:52.206Z,12.98
2022-11-14T00:27:38.162Z,13.68
2022-11-14T00:30:24.144Z,11.82
2022-11-14T00:33:09.695Z,11.00
2022-11-14T00:35:56.104Z,11.85
2022-11-14T00:38:41.625Z,11.70
2022-11-14T00:41:27.556Z,12.00
2022-11-14T00:44:13.389Z,11.90
2022-11-14T00:46:59.348Z,10.98
2022-11-14T00:49:45.225Z,11.52
2022-11-14T00:52:30.988Z,14.25
2022-11-14T00:55:17.026Z,13.85
2022-11-14T00:58:02.918Z,11.63
2022-11-14T01:00:48.844Z,11.75
2022-11-14T01:03:34.965Z,11.88
2022-11-14T01:06:20.456Z,12.93
2022-11-14T01:09:06.666Z,10.98
2022-11-14T01:11:52.161Z,10.00
2022-11-14T01:14:38.945Z,10.68
2022-11-14T01:17:24.839Z,11.43
2022-11-14T01:20:10.688Z,10.25
2022-11-14T01:22:56.550Z,10.27
2022-11-14T01:25:42.944Z,10.90
2022-11-14T01:28:29.153Z,10.90
2022-11-14T01:31:19.622Z,10.80
2022-11-14T01:34:05.361Z,9.52
2022-11-14T01:36:51.138Z,10.25
2022-11-14T01:39:37.009Z,10.50
2022-11-14T01:42:27.010Z,10.80
2022-11-14T01:45:47.213Z,10.35
2022-11-14T01:48:37.784Z,11.07
2022-11-14T01:51:43.786Z,10.27
2022-11-14T01:54:32.352Z,12.05
2022-11-14T01:57:20.393Z,9.80
2022-11-14T02:00:08.324Z,9.90
2022-11-14T02:02:54.018Z,11.55
2022-11-14T02:05:39.762Z,10.45
2022-11-14T02:08:25.417Z,10.68
2022-11-14T02:11:14.271Z,11.13
2022-11-14T02:14:00.256Z,10.32
2022-11-14T02:17:07.306Z,12.25
2022-11-14T02:22:39.346Z,12.73
2022-11-14T02:25:25.402Z,12.32
2022-11-14T02:28:11.321Z,11.88
2022-11-14T02:30:57.630Z,12.73
2022-11-14T02:33:43.553Z,12.95
2022-11-14T02:36:29.068Z,13.45
2022-11-14T02:39:14.826Z,14.02
2022-11-14T02:42:00.777Z,14.15
2022-11-14T02:44:46.509Z,14.45
2022-11-14T02:47:32.389Z,12.93
2022-11-14T02:50:18.327Z,13.73
2022-11-14T02:53:04.119Z,12.73
2022-11-14T02:55:50.065Z,13.68
2022-11-14T02:58:35.973Z,13.25
2022-11-14T03:01:22.033Z,12.02
2022-11-14T03:04:07.968Z,11.95
2022-11-14T03:06:53.820Z,11.20
2022-11-14T03:09:39.741Z,11.07
2022-11-14T03:12:25.581Z,10.63
2022-11-14T03:15:11.444Z,11.73
2022-11-14T03:17:57.071Z,10.90
2022-11-14T03:20:42.835Z,10.40
2022-11-14T03:23:28.665Z,11.07
2022-11-14T03:26:14.761Z,10.88
2022-11-14T03:29:00.347Z,10.65
2022-11-14T03:31:46.129Z,12.18
2022-11-14T03:34:32.084Z,11.60
2022-11-14T03:37:17.995Z,10.15
2022-11-14T03:40:04.193Z,11.25
2022-11-14T03:42:49.995Z,11.90
2022-11-14T03:45:38.797Z,12.20
2022-11-14T03:48:24.604Z,11.25
2022-11-14T03:51:10.413Z,9.93
2022-11-14T03:53:56.252Z,10.55
2022-11-14T03:56:42.153Z,10.38
2022-11-14T03:59:27.956Z,10.18
2022-11-14T04:02:13.856Z,9.98
2022-11-14T04:04:59.582Z,9.50
2022-11-14T04:07:45.460Z,8.63
2022-11-14T04:10:31.459Z,8.70
2022-11-14T04:13:17.278Z,8.98
2022-11-14T04:16:03.309Z,8.55
2022-11-14T04:18:49.021Z,9.18
2022-11-14T04:21:34.794Z,10.73
2022-11-14T04:24:20.810Z,10.35
2022-11-14T04:27:06.549Z,10.45
2022-11-14T04:29:52.386Z,9.82
2022-11-14T04:32:38.097Z,9.93
2022-11-14T04:35:23.890Z,10.43
2022-11-14T04:38:10.181Z,9.90
2022-11-14T04:40:55.681Z,11.00
2022-11-14T04:43:42.963Z,13.20
2022-11-14T04:46:30.574Z,11.25
2022-11-14T04:49:16.322Z,11.13
2022-11-14T04:52:02.137Z,11.38
2022-11-14T04:54:48.140Z,12.30
2022-11-14T04:57:34.066Z,10.70
2022-11-14T05:00:19.973Z,11.45
2022-11-14T05:03:05.876Z,10.18
2022-11-14T05:05:51.760Z,10.80
2022-11-14T05:08:37.576Z,10.25
2022-11-14T05:11:28.864Z,9.00
2022-11-14T05:14:15.282Z,9.00
2022-11-14T05:17:01.000Z,10.10
2022-11-14T05:19:46.955Z,8.20
2022-11-14T05:22:32.783Z,9.77
2022-11-14T05:25:18.737Z,9.77
2022-11-14T05:28:04.545Z,9.40
2022-11-14T05:30:50.466Z,9.60
2022-11-14T05:33:36.406Z,10.05
2022-11-14T05:36:22.224Z,8.52
2022-11-14T05:39:08.058Z,8.82
2022-11-14T05:41:53.792Z,8.90
2022-11-14T05:44:39.722Z,8.60
2022-11-14T05:47:25.704Z,8.52
2022-11-14T05:50:11.636Z,8.10
2022-11-14T05:52:57.353Z,7.97
2022-11-14T05:55:43.156Z,8.57
2022-11-14T05:58:29.409Z,8.80
2022-11-14T06:01:16.780Z,8.00
2022-11-14T06:04:02.557Z,7.47
2022-11-14T06:06:48.423Z,7.70
2022-11-14T06:09:34.330Z,7.50
2022-11-14T06:12:20.153Z,7.75
2022-11-14T06:15:06.441Z,7.47
2022-11-14T06:17:53.629Z,7.78
2022-11-14T06:20:39.140Z,7.53
2022-11-14T06:23:25.250Z,7.38
2022-11-14T06:26:18.300Z,7.22
2022-11-14T06:29:03.935Z,7.07
2022-11-14T06:31:49.755Z,7.18
2022-11-14T06:34:35.494Z,6.93
2022-11-14T06:37:21.307Z,7.38
2022-11-14T06:40:07.762Z,7.10
2022-11-14T06:42:55.902Z,6.85
2022-11-14T06:45:41.879Z,6.95
2022-11-14T06:48:28.238Z,7.05
2022-11-14T06:51:15.072Z,7.40
2022-11-14T06:54:00.570Z,6.53
2022-11-14T06:56:46.564Z,7.30
2022-11-14T06:59:32.425Z,6.47
2022-11-14T07:02:21.858Z,6.53
2022-11-14T07:05:08.090Z,6.55
2022-11-14T07:07:53.937Z,6.15
2022-11-14T07:10:39.817Z,6.78
2022-11-14T07:13:25.459Z,6.05
2022-11-14T07:16:11.362Z,6.40
2022-11-14T07:19:00.250Z,6.35
2022-11-14T07:21:46.281Z,6.13
2022-11-14T07:24:32.238Z,6.97
2022-11-14T07:27:18.094Z,6.65
2022-11-14T07:30:04.401Z,6.22
2022-11-14T07:32:56.965Z,6.65
2022-11-14T07:35:42.484Z,6.07
2022-11-14T07:38:28.464Z,6.00
2022-11-14T07:41:15.543Z,6.38
2022-11-14T07:44:01.282Z,6.32
2022-11-14T07:46:47.166Z,6.28
2022-11-14T07:49:34.349Z,5.57
2022-11-14T07:52:20.126Z,6.45
2022-11-14T07:55:06.366Z,6.30
2022-11-14T07:57:55.470Z,7.03
2022-11-14T08:00:41.040Z,6.50
2022-11-14T08:03:26.793Z,6.03
2022-11-14T08:06:14.125Z,5.90
2022-11-14T08:08:59.618Z,5.25
2022-11-14T08:11:48.104Z,5.13
2022-11-14T08:14:34.403Z,6.03
2022-11-14T08:17:23.557Z,5.47
2022-11-14T08:20:09.652Z,5.70
2022-11-14T08:23:02.298Z,5.50
2022-11-14T08:25:47.931Z,4.85
2022-11-14T08:28:34.018Z,5.93
2022-11-14T08:31:20.340Z,5.57
2022-11-14T08:34:06.097Z,5.05
2022-11-14T08:36:51.874Z,5.40
2022-11-14T08:39:37.762Z,5.25
2022-11-14T08:42:23.530Z,5.57
2022-11-14T08:45:09.587Z,5.50
2022-11-14T08:47:55.606Z,5.80
2022-11-14T08:50:41.110Z,5.40
2022-11-14T08:53:26.917Z,6.05
2022-11-14T08:56:12.972Z,6.65
2022-11-14T08:58:58.804Z,6.15
2022-11-14T09:01:44.717Z,6.20
2022-11-14T09:04:30.637Z,5.90
2022-11-14T09:07:16.651Z,6.90
2022-11-14T09:10:02.286Z,6.45
2022-11-14T09:12:48.072Z,6.45
2022-11-14T09:15:34.106Z,6.10
2022-11-14T09:18:21.018Z,6.10
2022-11-14T09:21:07.815Z,5.70
2022-11-14T09:23:57.360Z,6.70
2022-11-14T09:26:46.367Z,6.18
2022-11-14T09:29:32.384Z,6.35
2022-11-14T09:32:18.114Z,6.43
2022-11-14T09:35:03.996Z,6.20
2022-11-14T09:37:49.575Z,7.47
2022-11-14T09:40:51.911Z,7.25
2022-11-14T09:43:47.945Z,7.20
2022-11-14T09:49:39.118Z,7.88
2022-11-14T09:52:37.555Z,7.97
2022-11-14T09:55:35.182Z,8.77
2022-11-14T09:58:22.518Z,9.50
2022-11-14T10:01:33.357Z,8.20
2022-11-14T10:04:40.718Z,7.90
2022-11-14T10:07:38.750Z,8.18
2022-11-14T10:10:49.120Z,7.95
2022-11-14T10:13:51.806Z,7.05
2022-11-14T10:16:48.010Z,8.02
2022-11-14T10:20:08.818Z,10.43
2022-11-14T10:23:12.833Z,11.40
2022-11-14T10:26:14.416Z,10.52
2022-11-14T10:29:21.598Z,11.32
2022-11-14T10:32:27.725Z,10.60
2022-11-14T10:35:16.608Z,12.52
2022-11-14T10:38:31.663Z,13.15
2022-11-14T10:41:41.893Z,13.90
2022-11-14T10:44:26.798Z,13.77
2022-11-14T10:47:14.646Z,14.90
2022-11-14T10:50:00.594Z,14.25
2022-11-14T10:52:46.218Z,14.50
2022-11-14T11:02:07.133Z,13.45
2022-11-14T11:04:53.151Z,14.05
2022-11-14T11:08:28.286Z,13.93
2022-11-14T11:11:30.828Z,13.93
2022-11-14T11:14:18.061Z,14.43
2022-11-14T11:17:13.040Z,15.00
2022-11-14T11:20:19.175Z,10.55
2022-11-14T11:23:11.560Z,14.00
2022-11-14T11:26:05.615Z,13.77
2022-11-14T11:29:17.284Z,14.05
2022-11-14T11:32:02.951Z,14.25
2022-11-14T11:34:48.877Z,14.38
2022-11-14T11:37:40.324Z,14.30
2022-11-14T11:40:27.418Z,13.65
2022-11-14T11:43:45.945Z,12.90
2022-11-14T11:47:00.891Z,11.82
2022-11-14T11:49:53.316Z,12.70
2022-11-14T11:53:00.971Z,11.18
2022-11-14T11:55:52.242Z,11.57
2022-11-14T11:58:38.453Z,11.43
2022-11-14T12:01:24.289Z,11.07
2022-11-14T12:04:10.210Z,10.60
2022-11-14T12:07:13.368Z,11.80
2022-11-14T12:10:14.503Z,10.20
2022-11-14T12:13:24.349Z,12.43
2022-11-14T12:16:13.372Z,10.40
2022-11-14T12:19:09.547Z,10.35
2022-11-14T12:22:29.178Z,10.27
2022-11-14T12:25:48.756Z,9.80
2022-11-14T12:28:49.440Z,9.88
2022-11-14T12:31:35.725Z,8.05
2022-11-14T12:34:32.813Z,8.57
2022-11-14T12:37:31.483Z,8.23
2022-11-14T12:40:40.349Z,7.03
2022-11-14T12:43:25.976Z,6.68
2022-11-14T12:46:12.948Z,6.50
2022-11-14T12:48:58.814Z,6.85
2022-11-14T12:51:49.133Z,7.50
2022-11-14T12:54:49.183Z,6.53
2022-11-14T12:57:48.338Z,8.00
2022-11-14T13:00:44.798Z,7.30
2022-11-14T13:04:07.348Z,7.70
2022-11-14T13:07:08.001Z,6.97
2022-11-14T13:10:12.711Z,7.00
2022-11-14T13:13:25.476Z,7.40
2022-11-14T13:16:47.991Z,6.93
2022-11-14T13:19:52.231Z,8.00
2022-11-14T13:22:42.132Z,7.22
2022-11-14T13:25:28.094Z,6.45
2022-11-14T13:28:49.881Z,6.65
2022-11-14T13:31:38.350Z,6.72
2022-11-14T13:34:52.387Z,6.35
2022-11-14T13:38:15.536Z,5.80
2022-11-14T13:41:24.327Z,6.07
2022-11-14T13:44:19.841Z,6.03
2022-11-14T13:47:38.518Z,6.55
2022-11-14T13:50:32.949Z,5.70
2022-11-14T13:53:24.518Z,6.30
2022-11-14T13:56:46.707Z,6.53
2022-11-14T13:59:38.514Z,5.95
2022-11-14T14:02:58.315Z,6.30
2022-11-14T14:06:05.977Z,5.97
2022-11-14T14:09:13.006Z,5.50
2022-11-14T14:12:11.130Z,5.63
2022-11-14T14:15:20.770Z,5.68
2022-11-14T14:18:23.118Z,5.85
2022-11-14T14:21:33.501Z,5.72
2022-11-14T14:24:55.694Z,5.75
2022-11-14T14:28:09.449Z,5.40
2022-11-14T14:31:09.582Z,5.70
2022-11-14T14:33:55.035Z,5.57
2022-11-14T14:36:40.847Z,6.07
2022-11-14T14:39:28.096Z,6.53
2022-11-14T14:42:16.960Z,7.22
2022-11-14T14:45:03.080Z,6.32
2022-11-14T14:47:58.470Z,13.55
2022-11-14T14:53:49.953Z,6.90
2022-11-14T14:56:35.689Z,5.75
2022-11-14T14:59:23.356Z,5.40
2022-11-14T15:02:14.023Z,5.05
2022-11-14T15:05:00.213Z,5.47
2022-11-14T15:07:46.410Z,6.90
2022-11-14T15:10:32.683Z,6.43
2022-11-14T15:13:18.592Z,5.97
2022-11-14T15:16:04.877Z,5.35
2022-11-14T15:18:51.581Z,5.28
2022-11-14T15:21:37.535Z,5.63
2022-11-14T15:24:23.587Z,5.55
2022-11-14T15:27:17.073Z,6.40
2022-11-14T15:30:05.666Z,5.35
2022-11-14T15:32:53.179Z,4.85
2022-11-14T15:35:39.450Z,5.30
2022-11-14T15:41:34.185Z,6.05
2022-11-14T15:44:33.362Z,6.20
2022-11-14T15:47:29.141Z,6.00
2022-11-14T15:50:14.615Z,7.10
2022-11-14T15:53:02.436Z,6.93
2022-11-14T15:55:48.303Z,6.30
2022-11-14T15:58:34.150Z,7.22
2022-11-14T16:01:23.999Z,7.93
2022-11-14T16:04:14.097Z,7.95
2022-11-14T16:06:59.925Z,8.77
2022-11-14T16:09:45.984Z,8.45
2022-11-14T16:12:31.526Z,9.05
2022-11-14T16:15:17.486Z,8.30
2022-11-14T16:18:04.297Z,9.15
2022-11-14T16:20:51.461Z,8.63
2022-11-14T16:23:39.254Z,8.98
2022-11-14T16:26:26.286Z,11.13
2022-11-14T16:29:12.127Z,9.07
2022-11-14T16:31:57.992Z,8.05
2022-11-14T16:34:43.836Z,7.97
2022-11-14T16:37:29.638Z,7.70
2022-11-14T16:40:23.170Z,8.23
2022-11-14T16:43:09.584Z,7.57
2022-11-14T16:45:55.154Z,7.72
2022-11-14T16:48:41.169Z,7.95
2022-11-14T16:51:47.950Z,8.23
2022-11-14T16:57:19.008Z,7.68
2022-11-14T17:00:07.207Z,7.75
2022-11-14T17:02:52.993Z,7.75
2022-11-14T17:05:45.808Z,8.00
2022-11-14T17:08:31.323Z,7.43
2022-11-14T17:11:17.257Z,7.70
2022-11-14T17:14:02.945Z,8.15
2022-11-14T17:16:48.698Z,7.47
2022-11-14T17:19:34.590Z,7.93
2022-11-14T17:22:20.442Z,7.70
2022-11-14T17:25:06.593Z,8.15
2022-11-14T17:27:52.132Z,7.28
2022-11-14T17:30:41.836Z,7.97
2022-11-14T17:33:27.597Z,8.15
2022-11-14T17:36:14.085Z,7.95
2022-11-14T17:38:59.625Z,8.07
2022-11-14T17:41:45.674Z,8.50
2022-11-14T17:44:31.566Z,7.68
2022-11-14T17:47:17.832Z,7.68
2022-11-14T17:50:04.150Z,7.47
2022-11-14T17:52:49.774Z,8.07
2022-11-14T17:55:35.773Z,8.25
2022-11-14T17:58:21.668Z,8.65
2022-11-14T18:01:11.959Z,8.35
2022-11-14T18:04:04.471Z,8.43
2022-11-14T18:06:51.995Z,8.02
2022-11-14T18:09:38.310Z,8.18
2022-11-14T18:12:24.101Z,8.02
2022-11-14T18:15:10.011Z,8.00
2022-11-14T18:17:55.894Z,10.32
2022-11-14T18:20:41.717Z,10.13
2022-11-14T18:23:27.513Z,9.15
2022-11-14T18:26:15.237Z,7.90
2022-11-14T18:29:02.090Z,9.18
2022-11-14T18:31:48.353Z,9.77
2022-11-14T18:34:36.898Z,8.20
2022-11-14T18:37:23.143Z,7.93
2022-11-14T18:40:16.295Z,8.98
2022-11-14T18:43:02.612Z,8.57
2022-11-14T18:45:48.441Z,8.20
2022-11-14T18:48:34.752Z,9.45
2022-11-14T18:51:22.363Z,11.77
2022-11-14T18:54:12.704Z,9.73
2022-11-14T18:56:58.579Z,8.75
2022-11-14T18:59:44.499Z,9.55
2022-11-14T19:02:30.548Z,8.52
2022-11-14T19:05:16.361Z,9.40
2022-11-14T19:08:02.145Z,9.35
2022-11-14T19:10:48.352Z,9.38
2022-11-14T19:13:34.179Z,8.77
2022-11-14T19:16:20.273Z,8.75
2022-11-14T19:19:06.717Z,9.55
2022-11-14T19:21:52.541Z,10.18
2022-11-14T19:24:42.826Z,11.52
2022-11-14T19:27:28.814Z,11.27
2022-11-14T19:30:16.431Z,10.98
2022-11-14T19:33:04.535Z,9.75
2022-11-14T19:35:50.422Z,10.13
2022-11-14T19:38:36.241Z,11.52
2022-11-14T19:41:25.186Z,9.70
2022-11-14T19:44:12.449Z,9.90
2022-11-14T19:46:58.082Z,10.45
2022-11-14T19:49:44.054Z,9.93
2022-11-14T19:52:29.860Z,9.50
2022-11-14T19:55:15.698Z,10.05
2022-11-14T19:58:01.565Z,9.43
2022-11-14T20:00:47.416Z,10.95
2022-11-14T20:03:33.289Z,12.55
2022-11-14T20:06:23.902Z,11.90
2022-11-14T20:09:10.238Z,10.90
2022-11-14T20:11:55.730Z,11.23
2022-11-14T20:14:41.770Z,11.48
2022-11-14T20:17:27.618Z,11.68
2022-11-14T20:20:13.617Z,10.32
2022-11-14T20:22:59.382Z,11.45
2022-11-14T20:25:51.550Z,12.15
2022-11-14T20:28:38.455Z,10.82
2022-11-14T20:31:27.165Z,10.20
2022-11-14T20:34:12.937Z,11.55
2022-11-14T20:37:14.111Z,11.82
2022-11-14T20:39:59.966Z,12.20
2022-11-14T20:42:49.192Z,12.00
2022-11-14T20:45:34.820Z,12.23
2022-11-14T20:48:20.524Z,11.73
2022-11-14T20:51:13.844Z,12.88
2022-11-14T20:53:59.463Z,12.07
2022-11-14T20:56:45.357Z,11.75
2022-11-14T20:59:31.204Z,12.02
2022-11-14T21:02:17.281Z,11.40
2022-11-14T21:05:02.850Z,11.70
2022-11-14T21:07:48.731Z,10.82
2022-11-14T21:10:56.366Z,13.15
2022-11-14T21:13:57.265Z,11.27
2022-11-14T21:16:42.746Z,11.25
2022-11-14T21:19:31.300Z,11.85
2022-11-14T21:22:16.935Z,12.57
2022-11-14T21:25:03.785Z,11.55
2022-11-14T21:27:49.678Z,10.95
2022-11-14T21:30:35.626Z,11.82
2022-11-14T21:33:21.550Z,11.45
2022-11-14T21:36:37.903Z,11.07
2022-11-14T21:39:17.788Z,11.23
2022-11-14T21:42:03.975Z,11.00
2022-11-14T21:44:49.764Z,11.02
2022-11-14T21:47:35.494Z,10.70
2022-11-14T21:50:21.413Z,10.27
2022-11-14T21:53:15.746Z,10.10
2022-11-14T21:56:09.319Z,10.25
2022-11-14T21:59:12.454Z,10.70
2022-11-14T22:02:17.072Z,9.75
2022-11-14T22:05:02.993Z,10.63
2022-11-14T22:07:48.832Z,10.07
2022-11-14T22:10:34.685Z,10.38
2022-11-14T22:13:20.500Z,9.55
2022-11-14T22:16:09.721Z,10.43
2022-11-14T22:18:59.165Z,9.30
2022-11-14T22:21:48.140Z,9.38
2022-11-14T22:24:33.768Z,9.68
2022-11-14T22:27:19.597Z,9.73
2022-11-14T22:30:06.074Z,8.60
2022-11-14T22:32:52.117Z,8.48
2022-11-14T22:35:37.858Z,8.73
2022-11-14T22:38:23.786Z,8.32
2022-11-14T22:41:12.392Z,8.15
2022-11-14T22:43:58.428Z,8.25
2022-11-14T22:46:44.148Z,8.30
2022-11-14T22:49:29.848Z,7.70
2022-11-14T22:52:15.631Z,7.80
2022-11-14T22:55:01.481Z,7.22
2022-11-14T22:57:47.285Z,7.53
2022-11-14T23:00:33.050Z,7.63
2022-11-14T23:03:20.658Z,7.90
2022-11-14T23:06:13.508Z,7.53
2022-11-14T23:08:59.766Z,7.35
2022-11-14T23:11:45.379Z,7.40
2022-11-14T23:14:31.331Z,7.15
2022-11-14T23:17:17.159Z,7.20
2022-11-14T23:20:03.289Z,8.18
2022-11-14T23:22:48.864Z,8.23
2022-11-14T23:25:36.842Z,8.15
2022-11-14T23:28:22.806Z,7.65
2022-11-14T23:31:09.383Z,7.85
2022-11-14T23:33:55.392Z,8.10
2022-11-14T23:36:41.290Z,7.13
2022-11-14T23:39:27.054Z,8.55
2022-11-14T23:42:13.057Z,8.13
2022-11-14T23:44:59.126Z,8.07
2022-11-14T23:47:44.930Z,6.70
2022-11-14T23:50:30.924Z,7.50
2022-11-14T23:53:16.628Z,8.60
2022-11-14T23:56:02.548Z,8.18
2022-11-14T23:58:48.497Z,8.05
